Volcan De Tauce — EAGW — position and weather

sailwx.info

Track history (hours):
 
Tides and Currents Weather Stations Pressure Air Temp Water Temp Dewpoint Dewpoint Depression Visibility Wind Speed Wind Dir Waves Ship Positions

Volcan De Tauce

Last reported at 2016-Sep-30 03:32 UTC. Time now 2016-Sep-30 06:43 UTC.
Position N 28°08' W 014°05'.

Length 120 m; draft 4.8 m.

Type: Passenger vessel. MMSI: 224761000.

Date/timePositionNaut miles runAvg speedWind from/ knotsBaromVisibWave heightAir tempDewpointWater temp
2016-Sep-30 03:32N 28°08' W 014°05'6015.1
2016-Sep-29 23:33N 28°06' W 015°13'11 5.3
2016-Sep-29 21:33N 28°08' W 015°25'0 0.0
2016-Sep-29 20:33N 28°08' W 015°25'0 0.0
2016-Sep-29 19:33N 28°08' W 015°25'2 0.5
2016-Sep-29 16:33N 28°07' W 015°24'1615.6
2016-Sep-29 15:33N 28°05' W 015°06'1615.9
2016-Sep-29 14:33N 28°04' W 014°48'1615.8
2016-Sep-29 13:33N 28°02' W 014°30'23 1.8
2016-Sep-29 00:33N 28°04' W 014°56'26 8.6
2016-Sep-28 21:33N 28°08' W 015°25'0 0.0
2016-Sep-28 19:33N 28°08' W 015°25'1 0.2
2016-Sep-28 16:33N 28°08' W 015°24'1514.6
2016-Sep-28 15:33N 28°05' W 015°08'4815.7
2016-Sep-28 12:32N 28°04' W 014°14'33 7.7
2016-Sep-28 08:14N 28°30' W 013°51'26 5.5
2016-Sep-28 03:33N 28°08' W 014°06'3214.9
2016-Sep-28 01:22N 28°03' W 014°43'2715.1
2016-Sep-27 23:33N 28°06' W 015°13'10 2.6
2016-Sep-27 19:33N 28°08' W 015°25'32 6.3
2016-Sep-27 14:33N 28°03' W 014°49'1716.0
2016-Sep-27 13:31N 28°02' W 014°31'26 2.0
2016-Sep-27 00:33N 28°05' W 015°00'22 5.5
2016-Sep-26 20:33N 28°08' W 015°25'0 0.0
2016-Sep-26 19:33N 28°08' W 015°25'0 0.0
2016-Sep-26 15:33N 28°08' W 015°25'0 0.0
2016-Sep-26 13:33N 28°08' W 015°25'0 0.0
2016-Sep-26 11:33N 28°08' W 015°25'0 0.0
2016-Sep-26 08:33N 28°08' W 015°25'0 0.0
2016-Sep-26 02:33N 28°08' W 015°25'0 0.0
2016-Sep-26 01:33N 28°08' W 015°25'0 0.0
2016-Sep-26 00:33N 28°08' W 015°25'0 0.0
2016-Sep-25 21:33N 28°08' W 015°25'0 0.0
2016-Sep-25 17:33N 28°08' W 015°25'0 0.0
2016-Sep-25 16:33N 28°08' W 015°25'0 0.0
2016-Sep-25 15:33N 28°08' W 015°25'0 0.0
2016-Sep-25 14:33N 28°08' W 015°25'0 0.0
2016-Sep-25 12:33N 28°08' W 015°25'0 0.0
2016-Sep-25 11:33N 28°08' W 015°25'0 0.0
2016-Sep-25 10:33N 28°08' W 015°25'0 0.0
2016-Sep-25 09:33N 28°08' W 015°25'0 0.0
2016-Sep-25 07:33N 28°08' W 015°25'0 0.0
2016-Sep-25 04:33N 28°08' W 015°25'0 0.0
2016-Sep-25 00:33N 28°08' W 015°25'0 0.0
2016-Sep-24 22:33N 28°08' W 015°25'0 0.0
2016-Sep-24 21:33N 28°08' W 015°25'0 0.0
2016-Sep-24 19:33N 28°08' W 015°25'0 0.0
2016-Sep-24 18:33N 28°08' W 015°25'0 0.0
2016-Sep-24 17:33N 28°08' W 015°25'0 0.3
2016-Sep-24 16:33N 28°08' W 015°25'3015.2
2016-Sep-24 14:34N 28°04' W 014°50'3315.8
2016-Sep-24 12:30N 28°04' W 014°14'3115.9
2016-Sep-24 10:33N 28°26' W 013°49'33 4.6
2016-Sep-24 03:33N 28°03' W 014°15'1714.7
2016-Sep-24 02:23N 28°02' W 014°34'1214.7
2016-Sep-24 01:34N 28°04' W 014°48'1515.0
2016-Sep-24 00:33N 28°05' W 015°05'18 3.6
2016-Sep-23 19:33N 28°08' W 015°25'0 0.0
2016-Sep-23 17:33N 28°08' W 015°25'3 2.5
2016-Sep-23 16:33N 28°07' W 015°22'1615.7
2016-Sep-23 15:33N 28°06' W 015°05'3216.1
2016-Sep-23 13:33N 28°01' W 014°28'24 2.6
2016-Sep-23 04:14N 28°09' W 014°03'2914.7
2016-Sep-23 02:14N 28°02' W 014°35'1014.9
2016-Sep-23 01:33N 28°03' W 014°46'1515.0
2016-Sep-23 00:33N 28°05' W 015°03'1515.2
2016-Sep-22 23:33N 28°08' W 015°20'4 1.4
2016-Sep-22 20:33N 28°08' W 015°25'63 7.6
2016-Sep-22 12:22N 28°04' W 014°14'11 1.4
2016-Sep-22 04:08N 28°09' W 014°02'5314.8
2016-Sep-22 00:33N 28°04' W 015°02'1515.2
2016-Sep-21 23:34N 28°06' W 015°19'5 4.4
2016-Sep-21 22:20N 28°08' W 015°25'0 0.0
2016-Sep-21 19:33N 28°08' W 015°25'0 0.2
2016-Sep-21 16:33N 28°08' W 015°25'8511.8
2016-Sep-21 09:21N 28°30' W 013°51'0 0.0
2016-Sep-21 08:17N 28°30' W 013°51'49 8.0
2016-Sep-21 02:10N 28°03' W 014°37'42 4.9
2016-Sep-20 17:33N 28°08' W 015°25'3110.4
2016-Sep-20 14:33N 28°04' W 014°50'1616.2
2016-Sep-20 13:33N 28°02' W 014°32'  
Track history (hours):
 
Tides and Currents Weather Stations Pressure Air Temp Water Temp Dewpoint Dewpoint Depression Visibility Wind Speed Wind Dir Waves Ship Positions

Volcan De Tauce

Last reported at 2016-Sep-30 03:32 UTC. Time now 2016-Sep-30 06:43 UTC.
Position N 28°08' W 014°05'.

Length 120 m; draft 4.8 m.

Type: Passenger vessel. MMSI: 224761000.

Date/timePositionNaut miles runAvg speedWind from/ knotsBaromVisibWave heightAir tempDewpointWater temp
2016-Sep-30 03:32N 28°08' W 014°05'6015.1
2016-Sep-29 23:33N 28°06' W 015°13'11 5.3
2016-Sep-29 21:33N 28°08' W 015°25'0 0.0
2016-Sep-29 20:33N 28°08' W 015°25'0 0.0
2016-Sep-29 19:33N 28°08' W 015°25'2 0.5
2016-Sep-29 16:33N 28°07' W 015°24'1615.6
2016-Sep-29 15:33N 28°05' W 015°06'1615.9
2016-Sep-29 14:33N 28°04' W 014°48'1615.8
2016-Sep-29 13:33N 28°02' W 014°30'23 1.8
2016-Sep-29 00:33N 28°04' W 014°56'26 8.6
2016-Sep-28 21:33N 28°08' W 015°25'0 0.0
2016-Sep-28 19:33N 28°08' W 015°25'1 0.2
2016-Sep-28 16:33N 28°08' W 015°24'1514.6
2016-Sep-28 15:33N 28°05' W 015°08'4815.7
2016-Sep-28 12:32N 28°04' W 014°14'33 7.7
2016-Sep-28 08:14N 28°30' W 013°51'26 5.5
2016-Sep-28 03:33N 28°08' W 014°06'3214.9
2016-Sep-28 01:22N 28°03' W 014°43'2715.1
2016-Sep-27 23:33N 28°06' W 015°13'10 2.6
2016-Sep-27 19:33N 28°08' W 015°25'32 6.3
2016-Sep-27 14:33N 28°03' W 014°49'1716.0
2016-Sep-27 13:31N 28°02' W 014°31'26 2.0
2016-Sep-27 00:33N 28°05' W 015°00'22 5.5
2016-Sep-26 20:33N 28°08' W 015°25'0 0.0
2016-Sep-26 19:33N 28°08' W 015°25'0 0.0
2016-Sep-26 15:33N 28°08' W 015°25'0 0.0
2016-Sep-26 13:33N 28°08' W 015°25'0 0.0
2016-Sep-26 11:33N 28°08' W 015°25'0 0.0
2016-Sep-26 08:33N 28°08' W 015°25'0 0.0
2016-Sep-26 02:33N 28°08' W 015°25'0 0.0
2016-Sep-26 01:33N 28°08' W 015°25'0 0.0
2016-Sep-26 00:33N 28°08' W 015°25'0 0.0
2016-Sep-25 21:33N 28°08' W 015°25'0 0.0
2016-Sep-25 17:33N 28°08' W 015°25'0 0.0
2016-Sep-25 16:33N 28°08' W 015°25'0 0.0
2016-Sep-25 15:33N 28°08' W 015°25'0 0.0
2016-Sep-25 14:33N 28°08' W 015°25'0 0.0
2016-Sep-25 12:33N 28°08' W 015°25'0 0.0
2016-Sep-25 11:33N 28°08' W 015°25'0 0.0
2016-Sep-25 10:33N 28°08' W 015°25'0 0.0
2016-Sep-25 09:33N 28°08' W 015°25'0 0.0
2016-Sep-25 07:33N 28°08' W 015°25'0 0.0
2016-Sep-25 04:33N 28°08' W 015°25'0 0.0
2016-Sep-25 00:33N 28°08' W 015°25'0 0.0
2016-Sep-24 22:33N 28°08' W 015°25'0 0.0
2016-Sep-24 21:33N 28°08' W 015°25'0 0.0
2016-Sep-24 19:33N 28°08' W 015°25'0 0.0
2016-Sep-24 18:33N 28°08' W 015°25'0 0.0
2016-Sep-24 17:33N 28°08' W 015°25'0 0.3
2016-Sep-24 16:33N 28°08' W 015°25'3015.2
2016-Sep-24 14:34N 28°04' W 014°50'3315.8
2016-Sep-24 12:30N 28°04' W 014°14'3115.9
2016-Sep-24 10:33N 28°26' W 013°49'33 4.6
2016-Sep-24 03:33N 28°03' W 014°15'1714.7
2016-Sep-24 02:23N 28°02' W 014°34'1214.7
2016-Sep-24 01:34N 28°04' W 014°48'1515.0
2016-Sep-24 00:33N 28°05' W 015°05'18 3.6
2016-Sep-23 19:33N 28°08' W 015°25'0 0.0
2016-Sep-23 17:33N 28°08' W 015°25'3 2.5
2016-Sep-23 16:33N 28°07' W 015°22'1615.7
2016-Sep-23 15:33N 28°06' W 015°05'3216.1
2016-Sep-23 13:33N 28°01' W 014°28'24 2.6
2016-Sep-23 04:14N 28°09' W 014°03'2914.7
2016-Sep-23 02:14N 28°02' W 014°35'1014.9
2016-Sep-23 01:33N 28°03' W 014°46'1515.0
2016-Sep-23 00:33N 28°05' W 015°03'1515.2
2016-Sep-22 23:33N 28°08' W 015°20'4 1.4
2016-Sep-22 20:33N 28°08' W 015°25'63 7.6
2016-Sep-22 12:22N 28°04' W 014°14'11 1.4
2016-Sep-22 04:08N 28°09' W 014°02'5314.8
2016-Sep-22 00:33N 28°04' W 015°02'1515.2
2016-Sep-21 23:34N 28°06' W 015°19'5 4.4
2016-Sep-21 22:20N 28°08' W 015°25'0 0.0
2016-Sep-21 19:33N 28°08' W 015°25'0 0.2
2016-Sep-21 16:33N 28°08' W 015°25'8511.8
2016-Sep-21 09:21N 28°30' W 013°51'0 0.0
2016-Sep-21 08:17N 28°30' W 013°51'49 8.0
2016-Sep-21 02:10N 28°03' W 014°37'42 4.9
2016-Sep-20 17:33N 28°08' W 015°25'3110.4
2016-Sep-20 14:33N 28°04' W 014°50'1616.2
2016-Sep-20 13:33N 28°02' W 014°32'  

Dump ship's entire track history